CWHN

Jimmy Lake Airport

Jimmy Lake, Canada
METAR CWHN 181100Z AUTO 00000KT 9SM CLR M30/M34 A3025 RMK SLP326
Observed Flight Rules
Jan-18 @ 11:00 UTC (43 minutes ago) Visual Flight Rules
Visibility Clouds
9 miles
  • Clear skies
Temperatures Readings
Current -30°C / -22°F
Dewpoint -34°C / -29°F
Humidity 68%
Altimeter 30.25" Hg
Pressure 1032.6 hPa
Elevation 636
METAR CWHN 181100Z AUTO 00000KT 9SM CLR M30/M34 A3025 RMK SLP326
Observed Flight Rules
Jan-18 @ 11:00 UTC
(43 minutes ago)
VFR
Clouds
  • Clear skies
Temperature Dewpoint
-30°C / -22°F -34°C / -29°F
Humidity Altimeter Pressure
68% 30.25" Hg 1032.6 hPa